Aviation Digital Data Service (ADDS)

Output produced by METARs form (0049 UTC 24 May 2022)
found at http://www.aviationweather.gov/metar/data/
 
RJSK 240000Z 30005KT 270V010 9999 FEW010 SCT015 BKN025 17/13 Q1017
TAF RJSK 232310Z 2400/2506 28010KT 9999 FEW030 
     BECMG 2412/2415 13005KT 
     BECMG 2503/2506 30008KT
       
RJKA 240022Z 10011KT 4000 -SHRA FEW003 BKN006 BKN015 19/18 Q1014 RMK 1ST003 5CU006 7CU015 A2995
RJSA 240000Z 29006KT 250V330 9999 FEW010 SCT015 BKN025 16/12 Q1017
TAF RJSA 232310Z 2400/2506 28010KT 9999 FEW030 
     BECMG 2410/2412 20004KT 
     BECMG 2503/2506 04005KT
       
RJEC 240000Z VRB04KT 9999 FEW015 SCT020 14/10 Q1015
TAF RJEC 232305Z 2400/2506 32010KT 9999 FEW030 
     BECMG 2410/2412 20009KT
       
RJFE 240000Z VRB02KT CAVOK 23/15 Q1014
RJFF 240030Z 17005KT 090V230 CAVOK 26/17 Q1014 BECMG 31009KT RMK A2994
TAF RJFF 232308Z 2400/2506 16004KT 9999 FEW030 
     BECMG 2400/2402 31011KT 
     BECMG 2410/2412 14003KT 
     BECMG 2500/2503 32011KT
       
RJSF 240000Z 21004KT 170V270 9999 FEW015 16/13 Q1017
TAF RJSF 232310Z 2400/2506 20005KT 9999 FEW030 
     TEMPO 2418/2421 3000 BR
       
ROTM 232356Z 24009KT 9999 VCSH FEW010 BKN025 BKN100 26/25 A2987 RMK SLP101 60024 T02560250 10256 20233 52007
TAF ROTM 2321/2421 12008KT 6000 -SHRA BR BKN007 BKN012 OVC018 651505 622003
510305 QNH2984INS 
     BECMG 2323/2401 VRB06KT 6000 -SHRA BR BKN008 BKN015 OVC025 651505 622003
510305 QNH2988INS 
     TEMPO 2402/2406 03012KT 4800 SHRA BR SCT008 BKN030 OVC060 
     BECMG 2410/2412 VRB06KT 9000 -DZ BR BKN006 BKN010 OVC015 651505 622003
50000 QNH2982INS T25/2404Z T20/2413Z
       
RJNG 232313Z VRB02KT 9999 FEW020 21/11 Q1017 RMK 1CU020 A3004
RJCH 240000Z 25012KT 9999 FEW012 SCT025 17/12 Q1016
TAF RJCH 232309Z 2400/2506 26012KT 9999 FEW025 
     BECMG 2410/2412 06004KT 
     BECMG 2421/2500 22005KT 
     TEMPO 2421/2503 2000 BR FEW002 BKN004 
     BECMG 2503/2506 16006KT
       
RJSI 240000Z VRB02KT 9999 FEW030 BKN040 19/12 Q1016
TAF RJSI 232305Z 2400/2506 27005KT 9999 FEW030 
     BECMG 2415/2418 01004KT 
     BECMG 2500/2503 19010KT
       
RJOA 240000Z 11003KT 070V160 CAVOK 21/11 Q1016
TAF RJOA 232305Z 2400/2506 14006KT 9999 FEW030 
     BECMG 2409/2411 32004KT 
     BECMG 2500/2503 15005KT
       
RJAH 240000Z 20005KT 150V250 9999 FEW025 SCT250 21/14 Q1017
TAF RJAH 232305Z 2400/2506 17010KT 9999 FEW020 SCT040 
     TEMPO 2418/2421 3000 BR
       
RODE 240031Z AUTO 06003KT 10SM FEW009 OVC014 A2988 RMK AO2 PWINO $
RJDB 240000Z AUTO 22004KT 180V250 9999 NSC 22/17 Q1014
ROIG 240000Z 02003KT 350V060 9999 VCSH FEW025 BKN032 26/24 Q1011
TAF ROIG 232306Z 2400/2506 33006KT 9999 FEW015 BKN025 
     TEMPO 2412/2415 4000 SHRA BKN008 BKN015 FEW020CB
       
RJOI 0524 DH0000/PPH 0.00
TAF RJOI 2321/2421 31006KT 9000 HZ FEW030 SCT210 522707 QNH2995INS 
     BECMG 2402/2404 13008KT 9999 NSW FEW030 SCT210 522707 QNH2990INS 
     BECMG 2409/2411 31006KT 9999 FEW030 SCT210 500000 QNH2986INS T18/2321Z
T26/2406Z
       
RJOW 240000Z 32004KT 9999 FEW025 24/14 Q1014
RJAW 240039Z 03008KT 350V070 9999 BKN015 SCT/// 28/21 Q1014 RMK 5CU015 A2997
RJOC 240000Z 06004KT 030V090 CAVOK 21/11 Q1015
TAF RJOC 232305Z 2400/2506 06008KT 9999 FEW035 
     BECMG 2410/2412 17006KT
       
RODN 240026Z 26007KT 10SM BKN009 25/24 A2986 RMK AO2A SLP118 $
TAF RODN 240000Z 2400/2506 VRB06KT 8000 VCSH BR BKN008 QNH2982INS 
     TEMPO 2400/2405 4800 -SHRA BR BKN006 
     BECMG 2405/2406 VRB06KT 8000 VCSH BR BKN010 QNH2980INS 
     TEMPO 2406/2409 4800 -SHRA BKN008 
     BECMG 2412/2413 27009KT 6000 -SHRA BR BKN007 QNH2975INS 
     TEMPO 2418/2424 3200 SHRA BKN004 TX25/2402Z TN20/2419Z
       
RJFK 240000Z 12005KT 060V160 CAVOK 22/17 Q1015 RMK A2998
TAF RJFK 232309Z 2400/2506 12005KT 9999 FEW030 
     BECMG 2402/2404 18010KT 
     BECMG 2410/2412 07005KT 
     BECMG 2500/2503 13010KT
       
RJBB 240030Z 33004KT 9999 FEW025 20/13 Q1016 NOSIG
TAF RJBB 232305Z 2400/2506 35004KT 9999 FEW025 
     BECMG 2403/2405 27008KT 
     BECMG 2415/2418 05004KT 
     BECMG 2500/2503 26006KT
       
RJKI 240000Z AUTO 08006KT 050V120 9000 -RA FEW007 SCT009 OVC034 19/19 Q1014
RORK 240000Z AUTO 15026KT 9999 -RA FEW007 SCT018 OVC023 24/24 Q1010
RJFR 240000Z 10006KT 9999 FEW008 21/17 Q1015
TAF RJFR 232308Z 2400/2506 10006KT 9999 FEW030 
     BECMG 2403/2405 07009KT 
     BECMG 2415/2418 10003KT
       
RJOK 240000Z VRB03KT 9999 FEW035 SCT/// 24/16 Q1015
TAF RJOK 232305Z 2400/2506 17008KT 9999 FEW030 
     BECMG 2410/2412 35005KT 
     BECMG 2421/2500 18006KT
       
RJNK 240000Z 32005KT 280V360 9999 SCT250 20/14 Q1016
TAF RJNK 232307Z 2400/2506 36010KT 9999 FEW030 
     BECMG 2409/2411 12004KT 
     BECMG 2500/2503 32008KT
       
RJFT 240000Z 36004KT 290V070 8000 NSC 24/17 Q1014
TAF RJFT 232307Z 2400/2506 03004KT 9999 FEW040 
     BECMG 2400/2402 26007KT 
     TEMPO 2406/2409 -TSRA FEW010 SCT020 BKN030 FEW030CB 
     BECMG 2412/2415 07004KT 
     BECMG 2500/2503 24005KT
       
RJCK 240000Z 17007KT 130V200 9999 FEW030 16/10 Q1013
TAF RJCK 232309Z 2400/2506 19012KT 9999 FEW030 
     BECMG 2407/2409 2000 BR FEW002 BKN004 
     TEMPO 2411/2421 0700 FG VV001 
     BECMG 2421/2500 9999 NSW FEW004 BKN015
       
RJAF 240000Z 35004KT 310V020 9999 FEW035 16/11 Q1018
RJOM 240000Z 36011KT 9999 FEW030 21/15 Q1015
TAF RJOM 232305Z 2400/2506 35008KT 9999 FEW030 
     BECMG 2408/2410 12005KT 
     BECMG 2421/2500 35006KT
       
RJCM 240020Z 03005KT 350V070 5000 BR FEW002 SCT003 BKN004 10/08 Q1015 RMK 1ST002 3ST003 5ST004 A2997 9999N
TAF AMD RJCM 240003Z 2400/2506 03010KT 9999 FEW002 BKN004 
     TEMPO 2400/2403 3000 -DZ BR 
     BECMG 2403/2405 FEW008 SCT015 
     BECMG 2412/2415 20006KT 
     BECMG 2503/2506 04006KT
       
RJOH 240000Z VRB02KT 9999 FEW250 21/08 Q1015
TAF RJOH 232305Z 2400/2506 06008KT 9999 FEW035 
     BECMG 2412/2415 18005KT 
     BECMG 2500/2503 03005KT
       
ROMD 240029Z AUTO 17011KT 130V210 9000 -RA FEW003 SCT007 BKN017 24/24 Q1011 RMK A2986
RJSM 240000Z 32007KT 280V360 9999 FEW020 BKN030 19/12 Q1016
ROMY 240000Z 34007KT 9999 FEW010 BKN040 26/24 Q1011
RJFM 240000Z 03004KT 340V060 5000 BR FEW006 SCT022 22/19 Q1015
TAF RJFM 232309Z 2400/2506 07006KT 9999 FEW030 
     BECMG 2403/2405 14012KT 
     BECMG 2410/2412 28004KT 
     BECMG 2500/2503 05006KT
       
RJEB 240040Z 08005KT 030V110 2400 BCFG BR FEW001 BKN002 BKN003 09/09 Q1015 RMK 1ST001 5ST002 7ST003 A2998
RJFU 240000Z 31003KT 280V020 9000 NSC 22/18 Q1014
TAF RJFU 232307Z 2400/2506 29005KT 9999 FEW040 
     BECMG 2408/2410 14005KT 
     BECMG 2500/2503 29005KT
       
ROAH 240030Z 25011KT 9999 -SHRA FEW007 SCT018 BKN070 25/24 Q1011 RMK 2ST007 3CU018 5AC070 A2986
TAF AMD ROAH 240031Z 2400/2506 25012KT 9999 FEW008 BKN015 
     TEMPO 2400/2403 FEW005 BKN008 BKN012 
     TEMPO 2412/2415 4000 SHRA FEW005 BKN008 BKN012 
     TEMPO 2415/2421 FEW005 BKN008 BKN012
       
RJCN 240000Z 36011KT 320V040 9999 FEW025 16/09 Q1012
RJBD 240000Z 21005KT 120V290 9999 FEW035 SCT/// 24/17 Q1015
RJCC 240030Z 01009KT 9999 FEW006 BKN008 13/11 Q1016 RMK 1ST006 7ST008 A3000
TAF RJCC 232305Z 2400/2506 34010KT 9999 FEW004 BKN006 
     BECMG 2401/2403 FEW008 BKN015 
     BECMG 2403/2405 17006KT 
     BECMG 2500/2503 17016KT
       
RJAA 240030Z VRB04KT 9999 FEW020 SCT030 21/14 Q1017 BECMG 18005KT RMK 1CU020 3CU030 A3004
TAF RJAA 232305Z 2400/2506 16008KT 9999 FEW020 SCT030 
     TEMPO 2418/2421 3000 BR
       
RJSN 240000Z 02007KT 9999 FEW030 16/14 Q1017
TAF RJSN 232306Z 2400/2506 04005KT 9999 FEW030 
     BECMG 2400/2402 34008KT 
     BECMG 2406/2408 02008KT 
     BECMG 2500/2503 33007KT
       
RJCB 240000Z VRB02KT 9999 FEW010 14/12 Q1013
TAF RJCB 232305Z 2400/2506 35005KT 9999 FEW020 SCT050 
     BECMG 2401/2403 15011KT 
     TEMPO 2412/2500 2000 BR FEW002 BKN004
       
RJSR 240000Z 25003KT 200V280 9999 FEW020 SCT030 BKN035 17/13 Q1017
RJFO 240000Z 16003KT 080V190 CAVOK 21/17 Q1015
TAF RJFO 232309Z 2400/2506 06004KT 9999 FEW030 
     BECMG 2401/2403 13010KT 
     BECMG 2418/2421 24004KT
       
RJOB 240000Z 11003KT 030V170 CAVOK 22/10 Q1016
TAF RJOB 232305Z 2400/2506 14008KT 9999 FEW030
       
RJOO 240000Z 07005KT 020V120 CAVOK 23/10 Q1015 RMK A2999
TAF RJOO 232305Z 2400/2506 22006KT 9999 FEW030 
     BECMG 2407/2409 24007KT 
     BECMG 2421/2500 22008KT
       
RJTO 240000Z 22009KT 9999 FEW020 BKN050 22/16 Q1017
RJFS 240000Z VRB02KT 9000 NSC 23/18 Q1014
TAF RJFS 232307Z 2400/2506 03005KT 9999 FEW040 
     BECMG 2400/2402 21009KT 
     BECMG 2410/2412 14004KT 
     BECMG 2500/2503 21006KT
       
RJCO 240000Z 33005KT 9999 FEW003 BKN007 BKN015 12/11 Q1017
RJSS 240000Z 23005KT 190V270 9999 FEW030 20/12 Q1016
TAF RJSS 232305Z 2400/2506 15012KT 9999 FEW030 
     BECMG 2412/2415 34004KT 
     BECMG 2500/2503 12010KT
       
RORS 240000Z 35006KT 9999 FEW010 BKN037 27/24 Q1011
RJNY 232027Z 34003KT 9999 FEW015 BKN025 BKN045 18/16 Q1016 RMK 1CU015 5CU025 6SC045 A3001
RJSY 240000Z 32005KT 260V360 9999 FEW025 19/14 Q1017
RJBT 240000Z VRB01KT CAVOK 20/11 Q1015
RJOT 240000Z 02004KT 310V110 9999 FEW030 22/15 Q1016
TAF RJOT 232305Z 2400/2506 04006KT 9999 FEW030
       
RJFG 240000Z 18008KT 110V210 8000 FEW010 SCT015 BKN160 22/19 Q1015
RJCT 232333Z VRB02KT 9999 FEW002 SCT020 15/12 Q1015 RMK 1ST002 4CU020 A2998
RJKN 240043Z AUTO 08015G25KT 6000 FEW010 SCT044 OVC050 20/19 Q1012 RMK A2990
RJOS 240000Z 12004KT 060V160 9999 FEW030 22/11 Q1015
RJTT 240030Z 16010KT 9999 FEW030 23/14 Q1017 NOSIG RMK 2CU030 A3004
TAF RJTT 232305Z 2400/2506 19016KT 9999 FEW030
       
RJOR 240000Z 03007KT CAVOK 20/11 Q1015
RJNT 240000Z 36007KT 330V030 CAVOK 22/12 Q1016
TAF RJNT 232306Z 2400/2506 36008KT 9999 FEW030 
     BECMG 2412/2415 22004KT 
     BECMG 2500/2503 01010KT 
     TEMPO 2503/2506 TS FEW015 BKN020 FEW020CB
       
RJDT 240000Z 13005KT 100V170 CAVOK 22/16 Q1014
RJCW 240000Z 22011KT 7000 -DZ FEW002 BKN004 BKN006 09/08 Q1015
RJSC 240000Z 20004KT 130V300 9999 FEW030 18/13 Q1017
RJDC 240000Z 09007KT CAVOK 20/16 Q1015
RJOY 240000Z VRB02KT 9999 FEW025 23/10 Q1015
RJTY 232356Z 26004KT 10SM SCT025 21/15 A3007 RMK AO2A SLP184 T02130149 10213 20165 50003 $
TAF RJTY 232100Z 2321/2503 VRB06KT 9999 OVC015 QNH3006INS 
     BECMG 2322/2323 17009KT 9999 OVC020 QNH3007INS 
     BECMG 2401/2402 17012G18KT 9999 SCT025 QNH3002INS 
     BECMG 2411/2412 17006KT 9999 BKN020 QNH3004INS 
     TEMPO 2418/2423 BKN008 TX25/2404Z TN15/2420Z
       
ROYN 240000Z AUTO 34010KT 9999 OVC033 26/24 Q1011
RORY 240041Z AUTO 08012KT 5000 -RA BR BKN005 OVC007 22/22 Q1011 RMK A2987